createdAt,value
2023-02-03T00:00:22.351Z,10.93
2023-02-03T00:00:54.577Z,9.15
2023-02-03T00:01:26.453Z,6.55
2023-02-03T00:01:58.344Z,5.70
2023-02-03T00:02:30.294Z,9.32
2023-02-03T00:03:02.555Z,9.90
2023-02-03T00:03:34.428Z,9.73
2023-02-03T00:04:06.306Z,11.10
2023-02-03T00:04:38.191Z,13.43
2023-02-03T00:05:10.120Z,9.60
2023-02-03T00:05:42.634Z,10.27
2023-02-03T00:06:15.155Z,8.57
2023-02-03T00:06:47.414Z,7.55
2023-02-03T00:07:19.581Z,7.95
2023-02-03T00:07:51.686Z,8.32
2023-02-03T00:08:23.785Z,6.47
2023-02-03T00:08:58.331Z,6.72
2023-02-03T00:09:30.550Z,5.78
2023-02-03T00:10:03.051Z,8.43
2023-02-03T00:10:36.368Z,7.43
2023-02-03T00:11:08.353Z,9.00
2023-02-03T00:11:40.585Z,15.10
2023-02-03T00:12:12.479Z,10.85
2023-02-03T00:12:44.400Z,7.93
2023-02-03T00:13:16.324Z,6.50
2023-02-03T00:13:48.447Z,4.70
2023-02-03T00:14:20.363Z,5.40
2023-02-03T00:14:52.195Z,7.10
2023-02-03T00:15:24.169Z,6.47
2023-02-03T00:15:56.064Z,7.87
2023-02-03T00:16:28.148Z,5.57
2023-02-03T00:17:00.344Z,6.80
2023-02-03T00:17:32.208Z,8.82
2023-02-03T00:18:04.036Z,5.90
2023-02-03T00:18:35.900Z,6.60
2023-02-03T00:19:07.715Z,9.13
2023-02-03T00:19:39.553Z,5.85
2023-02-03T00:20:12.176Z,7.40
2023-02-03T00:20:44.256Z,9.82
2023-02-03T00:21:16.387Z,6.45
2023-02-03T00:21:48.301Z,5.78
2023-02-03T00:22:20.514Z,5.85
2023-02-03T00:22:52.454Z,8.00
2023-02-03T00:23:25.921Z,6.07
2023-02-03T00:23:57.884Z,4.03
2023-02-03T00:24:29.744Z,7.82
2023-02-03T00:25:01.677Z,5.57
2023-02-03T00:25:33.972Z,7.22
2023-02-03T00:26:15.094Z,6.32
2023-02-03T00:26:47.125Z,6.80
2023-02-03T00:27:19.018Z,6.12
2023-02-03T00:27:51.179Z,11.88
2023-02-03T00:28:23.613Z,10.80
2023-02-03T00:28:55.751Z,10.98
2023-02-03T00:29:27.827Z,9.52
2023-02-03T00:29:59.770Z,7.60
2023-02-03T00:30:34.810Z,6.50
2023-02-03T00:31:14.332Z,6.65
2023-02-03T00:31:46.373Z,7.57
2023-02-03T00:32:18.490Z,4.55
2023-02-03T00:32:50.532Z,7.03
2023-02-03T00:33:22.727Z,6.43
2023-02-03T00:33:56.278Z,7.30
2023-02-03T00:34:30.280Z,8.55
2023-02-03T00:35:02.232Z,6.18
2023-02-03T00:35:34.230Z,8.48
2023-02-03T00:36:06.886Z,3.85
2023-02-03T00:36:38.787Z,6.07
2023-02-03T00:37:13.150Z,6.85
2023-02-03T00:37:50.821Z,5.75
2023-02-03T00:38:23.061Z,5.93
2023-02-03T00:38:55.247Z,5.00
2023-02-03T00:39:27.186Z,4.57
2023-02-03T00:39:59.085Z,4.93
2023-02-03T00:40:31.046Z,5.00
2023-02-03T00:41:02.918Z,6.47
2023-02-03T00:41:34.796Z,4.90
2023-02-03T00:42:06.749Z,4.40
2023-02-03T00:42:38.658Z,4.35
2023-02-03T00:43:10.533Z,5.80
2023-02-03T00:43:43.109Z,3.58
2023-02-03T00:44:15.712Z,5.25
2023-02-03T00:44:47.595Z,5.12
2023-02-03T00:45:19.571Z,4.10
2023-02-03T00:45:51.536Z,6.15
2023-02-03T00:46:23.976Z,9.15
2023-02-03T00:46:55.882Z,6.07
2023-02-03T00:47:27.898Z,5.68
2023-02-03T00:47:59.809Z,5.70
2023-02-03T00:48:31.746Z,3.97
2023-02-03T00:49:04.887Z,6.15
2023-02-03T00:49:36.753Z,4.57
2023-02-03T00:50:10.183Z,5.25
2023-02-03T00:50:42.118Z,7.03
2023-02-03T00:51:14.072Z,5.70
2023-02-03T00:51:45.967Z,5.25
2023-02-03T00:52:19.284Z,6.43
2023-02-03T00:52:51.141Z,5.15
2023-02-03T00:53:23.108Z,4.95
2023-02-03T00:53:56.061Z,5.78
2023-02-03T00:54:28.690Z,8.80
2023-02-03T00:55:00.578Z,6.18
2023-02-03T00:55:32.447Z,4.40
2023-02-03T00:56:04.646Z,4.75
2023-02-03T00:56:36.517Z,4.97
2023-02-03T00:57:08.413Z,7.07
2023-02-03T00:57:40.354Z,6.00
2023-02-03T00:58:12.249Z,6.60
2023-02-03T00:58:44.187Z,8.55
2023-02-03T00:59:16.032Z,5.57
2023-02-03T00:59:48.254Z,9.77
2023-02-03T01:00:20.638Z,4.37
2023-02-03T01:00:54.966Z,4.28
2023-02-03T01:01:27.302Z,6.40
2023-02-03T01:01:59.335Z,5.20
2023-02-03T01:02:31.252Z,4.65
2023-02-03T01:03:03.440Z,5.65
2023-02-03T01:03:35.586Z,9.88
2023-02-03T01:04:07.693Z,4.25
2023-02-03T01:04:39.558Z,6.65
2023-02-03T01:05:12.080Z,5.28
2023-02-03T01:05:43.927Z,5.60
2023-02-03T01:06:20.352Z,5.53
2023-02-03T01:06:56.234Z,3.92
2023-02-03T01:07:30.930Z,3.10
2023-02-03T01:08:03.227Z,4.10
2023-02-03T01:08:35.108Z,4.53
2023-02-03T01:09:07.008Z,6.97
2023-02-03T01:09:39.029Z,5.62
2023-02-03T01:10:11.299Z,6.90
2023-02-03T01:10:43.222Z,4.95
2023-02-03T01:11:17.331Z,5.62
2023-02-03T01:11:49.209Z,4.82
2023-02-03T01:12:21.101Z,5.12
2023-02-03T01:12:52.943Z,6.43
2023-02-03T01:13:24.858Z,6.95
2023-02-03T01:14:00.899Z,4.57
2023-02-03T01:14:33.942Z,7.32
2023-02-03T01:15:06.432Z,3.95
2023-02-03T01:15:38.714Z,4.10
2023-02-03T01:16:12.590Z,7.25
2023-02-03T01:16:44.657Z,3.95
2023-02-03T01:17:16.591Z,4.28
2023-02-03T01:17:48.496Z,5.70
2023-02-03T01:18:21.183Z,4.55
2023-02-03T01:18:53.101Z,8.32
2023-02-03T01:19:25.389Z,4.03
2023-02-03T01:19:57.616Z,3.37
2023-02-03T01:20:29.580Z,3.90
2023-02-03T01:21:12.720Z,8.15
2023-02-03T01:21:44.816Z,3.95
2023-02-03T01:22:16.653Z,4.87
2023-02-03T01:22:48.840Z,4.37
2023-02-03T01:23:20.717Z,3.70
2023-02-03T01:23:53.213Z,4.57
2023-02-03T01:24:25.061Z,5.30
2023-02-03T01:24:57.001Z,5.72
2023-02-03T01:25:28.866Z,5.43
2023-02-03T01:26:10.188Z,4.37
2023-02-03T01:26:42.659Z,5.05
2023-02-03T01:27:14.756Z,3.97
2023-02-03T01:27:46.674Z,6.75
2023-02-03T01:28:18.560Z,4.25
2023-02-03T01:29:00.831Z,2.75
2023-02-03T01:29:32.778Z,4.60
2023-02-03T01:30:05.292Z,4.90
2023-02-03T01:30:37.232Z,6.68
2023-02-03T01:31:15.749Z,8.93
2023-02-03T01:31:48.010Z,6.87
2023-02-03T01:32:20.035Z,5.70
2023-02-03T01:32:51.942Z,5.50
2023-02-03T01:33:23.863Z,5.25
2023-02-03T01:33:56.415Z,3.85
2023-02-03T01:34:28.312Z,6.35
2023-02-03T01:35:00.232Z,7.20
2023-02-03T01:35:34.444Z,4.62
2023-02-03T01:36:09.737Z,4.72
2023-02-03T01:36:41.653Z,3.12
2023-02-03T01:37:17.216Z,5.00
2023-02-03T01:37:49.145Z,6.03
2023-02-03T01:38:21.027Z,6.55
2023-02-03T01:38:53.620Z,5.32
2023-02-03T01:39:27.339Z,4.60
2023-02-03T01:39:59.303Z,4.72
2023-02-03T01:40:31.742Z,10.20
2023-02-03T01:41:06.883Z,6.93
2023-02-03T01:41:40.008Z,7.80
2023-02-03T01:42:16.336Z,7.78
2023-02-03T01:42:48.528Z,13.50
2023-02-03T01:43:39.464Z,15.57
2023-02-03T01:44:51.264Z,19.48
2023-02-03T01:45:23.283Z,14.70
2023-02-03T01:45:55.206Z,12.68
2023-02-03T01:46:32.837Z,15.63
2023-02-03T01:47:29.698Z,30.92
2023-02-03T01:48:02.058Z,27.25
2023-02-03T01:48:36.137Z,23.83
2023-02-03T01:49:24.840Z,18.30
2023-02-03T01:49:59.771Z,28.35
2023-02-03T01:50:36.950Z,25.05
2023-02-03T01:51:10.335Z,19.90
2023-02-03T01:51:44.644Z,19.15
2023-02-03T01:52:17.581Z,17.90
2023-02-03T01:53:00.416Z,14.23
2023-02-03T01:53:33.923Z,14.68
2023-02-03T01:54:09.624Z,13.98
2023-02-03T01:54:45.728Z,8.68
2023-02-03T01:55:27.940Z,9.70
2023-02-03T01:56:04.980Z,11.85
2023-02-03T01:56:40.209Z,16.30
2023-02-03T01:57:25.986Z,13.73
2023-02-03T01:58:06.630Z,16.50
2023-02-03T01:58:42.547Z,13.75
2023-02-03T01:59:17.820Z,13.00
2023-02-03T01:59:51.731Z,14.35
2023-02-03T02:00:24.123Z,15.73
2023-02-03T02:00:59.690Z,14.87
2023-02-03T02:01:32.988Z,13.93
2023-02-03T02:02:05.910Z,12.10
2023-02-03T02:02:37.974Z,12.15
2023-02-03T02:03:10.676Z,8.30
2023-02-03T02:03:46.055Z,5.37
2023-02-03T02:04:18.135Z,4.72
2023-02-03T02:05:01.969Z,5.43
2023-02-03T02:05:50.709Z,3.30
2023-02-03T02:06:22.909Z,5.53
2023-02-03T02:06:56.612Z,7.75
2023-02-03T02:07:29.709Z,3.42
2023-02-03T02:08:03.840Z,4.82
2023-02-03T02:08:37.632Z,6.35
2023-02-03T02:09:09.628Z,5.05
2023-02-03T02:09:41.845Z,5.03
2023-02-03T02:10:13.777Z,7.70
2023-02-03T02:10:47.041Z,3.53
2023-02-03T02:11:21.443Z,7.60
2023-02-03T02:11:53.825Z,3.97
2023-02-03T02:12:25.730Z,7.03
2023-02-03T02:12:59.984Z,4.18
2023-02-03T02:13:35.097Z,3.92
2023-02-03T02:14:07.880Z,4.55
2023-02-03T02:14:41.452Z,7.45
2023-02-03T02:15:13.422Z,9.63
2023-02-03T02:15:54.772Z,11.15
2023-02-03T02:16:29.431Z,11.43
2023-02-03T02:17:12.096Z,9.55
2023-02-03T02:18:19.453Z,10.75
2023-02-03T02:19:09.859Z,13.13
2023-02-03T02:19:56.829Z,9.68
2023-02-03T02:20:38.643Z,7.87
2023-02-03T02:21:19.354Z,8.60
2023-02-03T02:22:05.887Z,7.55
2023-02-03T02:22:48.916Z,10.57
2023-02-03T02:23:29.426Z,7.03
2023-02-03T02:24:38.910Z,5.35
2023-02-03T02:25:36.411Z,6.93
2023-02-03T02:26:23.345Z,8.50
2023-02-03T02:27:00.827Z,7.82
2023-02-03T02:27:49.661Z,6.35
2023-02-03T02:29:02.576Z,3.67
2023-02-03T02:29:56.352Z,5.40
2023-02-03T02:30:45.997Z,4.12
2023-02-03T02:31:43.754Z,4.35
2023-02-03T02:32:46.569Z,4.43
2023-02-03T02:33:42.114Z,6.40
2023-02-03T02:34:24.073Z,4.55
2023-02-03T02:34:57.239Z,8.43
2023-02-03T02:35:37.886Z,12.93
2023-02-03T02:36:58.585Z,7.43
2023-02-03T02:37:59.453Z,14.80
2023-02-03T02:38:34.635Z,11.95
2023-02-03T02:39:28.204Z,10.98
2023-02-03T02:40:11.789Z,7.20
2023-02-03T02:41:02.870Z,5.12
2023-02-03T02:42:39.426Z,5.87
2023-02-03T02:43:29.046Z,6.65
2023-02-03T02:44:12.313Z,6.22
2023-02-03T02:44:59.103Z,6.28
2023-02-03T02:45:39.645Z,5.20
2023-02-03T02:46:51.110Z,5.53
2023-02-03T02:47:24.035Z,4.22
2023-02-03T02:48:08.557Z,5.70
2023-02-03T02:49:09.696Z,3.65
2023-02-03T02:50:06.627Z,3.60
2023-02-03T02:50:43.471Z,5.10
2023-02-03T02:51:16.925Z,5.72
2023-02-03T02:51:51.472Z,5.68
2023-02-03T02:52:26.466Z,5.15
2023-02-03T02:52:58.929Z,4.22
2023-02-03T02:53:40.702Z,6.62
2023-02-03T02:54:17.831Z,6.18
2023-02-03T02:54:53.812Z,5.03
2023-02-03T02:55:33.785Z,4.85
2023-02-03T02:56:11.615Z,4.60
2023-02-03T02:56:48.230Z,9.27
2023-02-03T02:57:22.420Z,6.43
2023-02-03T02:57:57.949Z,7.45
2023-02-03T02:58:32.132Z,9.30
2023-02-03T02:59:06.868Z,6.90
2023-02-03T02:59:38.749Z,6.40
2023-02-03T03:00:12.470Z,5.47
2023-02-03T03:00:45.656Z,6.57
2023-02-03T03:01:19.229Z,4.93
2023-02-03T03:01:51.650Z,4.82
2023-02-03T03:02:34.003Z,3.97
2023-02-03T03:03:22.742Z,6.15
2023-02-03T03:03:54.731Z,5.68
2023-02-03T03:04:30.208Z,4.72
2023-02-03T03:05:06.282Z,9.95
2023-02-03T03:05:43.147Z,4.03
2023-02-03T03:06:26.665Z,4.47
2023-02-03T03:07:04.741Z,3.87
2023-02-03T03:08:02.221Z,5.57
2023-02-03T03:08:40.354Z,5.85
2023-02-03T03:09:15.739Z,4.22
2023-02-03T03:09:52.559Z,4.35
2023-02-03T03:10:29.304Z,5.45
2023-02-03T03:11:02.367Z,4.65
2023-02-03T03:11:50.302Z,2.78
2023-02-03T03:12:31.280Z,3.00
2023-02-03T03:13:07.409Z,2.20
2023-02-03T03:13:45.792Z,3.78
2023-02-03T03:14:20.023Z,4.40
2023-02-03T03:14:58.040Z,4.70
2023-02-03T03:15:32.541Z,4.12
2023-02-03T03:16:07.734Z,3.67
2023-02-03T03:16:45.195Z,3.65
2023-02-03T03:17:34.028Z,3.00
2023-02-03T03:18:22.903Z,6.05
2023-02-03T03:19:00.533Z,5.68
2023-02-03T03:19:38.225Z,6.20
2023-02-03T03:20:16.152Z,4.50
2023-02-03T03:20:50.972Z,7.50
2023-02-03T03:21:31.412Z,6.25
2023-02-03T03:22:07.472Z,5.75
2023-02-03T03:22:45.756Z,5.80
2023-02-03T03:23:27.505Z,6.80
2023-02-03T03:24:03.911Z,6.05
2023-02-03T03:24:43.664Z,6.07
2023-02-03T03:25:22.170Z,6.40
2023-02-03T03:26:04.474Z,6.60
2023-02-03T03:26:43.479Z,5.62
2023-02-03T03:27:25.062Z,6.82
2023-02-03T03:28:01.971Z,8.80
2023-02-03T03:28:58.757Z,10.73
2023-02-03T03:29:39.777Z,9.95
2023-02-03T03:30:18.397Z,11.32
2023-02-03T03:30:50.488Z,9.75
2023-02-03T03:31:22.579Z,7.82
2023-02-03T03:31:54.798Z,6.60
2023-02-03T03:32:28.202Z,10.93
2023-02-03T03:33:00.373Z,8.23
2023-02-03T03:33:32.320Z,10.55
2023-02-03T03:34:04.575Z,11.48
2023-02-03T03:34:36.656Z,9.38
2023-02-03T03:35:09.281Z,8.85
2023-02-03T03:35:48.789Z,6.70
2023-02-03T03:36:37.957Z,8.20
2023-02-03T03:37:23.403Z,7.95
2023-02-03T03:38:07.111Z,6.75
2023-02-03T03:38:50.073Z,5.75
2023-02-03T03:39:31.334Z,4.93
2023-02-03T03:40:12.307Z,4.65
2023-02-03T03:40:52.220Z,5.72
2023-02-03T03:42:10.407Z,4.62
2023-02-03T03:42:49.038Z,6.68
2023-02-03T03:43:28.410Z,4.53
2023-02-03T03:44:03.525Z,5.97
2023-02-03T03:44:52.404Z,6.93
2023-02-03T03:45:59.702Z,5.18
2023-02-03T03:46:52.046Z,4.43
2023-02-03T03:47:26.546Z,5.97
2023-02-03T03:48:11.986Z,3.87
2023-02-03T03:48:55.487Z,5.93
2023-02-03T03:49:29.331Z,4.03
2023-02-03T03:50:06.067Z,6.62
2023-02-03T03:50:43.466Z,5.07
2023-02-03T03:51:33.983Z,4.68
2023-02-03T03:52:10.720Z,3.62
2023-02-03T03:52:45.390Z,3.62
2023-02-03T03:53:19.365Z,4.95
2023-02-03T03:53:53.715Z,6.15
2023-02-03T03:54:27.746Z,5.62
2023-02-03T03:55:02.011Z,3.55
2023-02-03T03:55:36.454Z,4.05
2023-02-03T03:56:16.233Z,4.30
2023-02-03T03:56:52.151Z,3.10
2023-02-03T03:57:30.729Z,3.65
2023-02-03T03:58:12.950Z,4.70
2023-02-03T03:58:49.836Z,3.92
2023-02-03T03:59:24.429Z,4.35
2023-02-03T03:59:57.249Z,4.62
2023-02-03T04:00:32.446Z,3.40
2023-02-03T04:01:07.553Z,4.07
2023-02-03T04:01:40.959Z,4.62
2023-02-03T04:02:14.638Z,5.22
2023-02-03T04:02:51.832Z,3.80
2023-02-03T04:03:29.760Z,3.85
2023-02-03T04:04:08.112Z,2.58
2023-02-03T04:04:41.618Z,3.12
2023-02-03T04:05:14.245Z,2.95
2023-02-03T04:05:46.350Z,3.78
2023-02-03T04:06:18.599Z,4.10
2023-02-03T04:06:52.785Z,3.65
2023-02-03T04:07:37.148Z,3.28
2023-02-03T04:08:09.602Z,3.12
2023-02-03T04:08:41.552Z,3.67
2023-02-03T04:09:13.486Z,4.00
2023-02-03T04:09:45.418Z,3.33
2023-02-03T04:10:31.618Z,5.32
2023-02-03T04:11:03.490Z,5.37
2023-02-03T04:11:54.180Z,3.05
2023-02-03T04:12:26.041Z,4.87
2023-02-03T04:12:57.946Z,2.67
2023-02-03T04:13:29.877Z,4.87
2023-02-03T04:14:01.771Z,2.85
2023-02-03T04:14:38.622Z,3.70
2023-02-03T04:15:10.587Z,3.65
2023-02-03T04:15:42.467Z,3.12
2023-02-03T04:16:14.361Z,5.45
2023-02-03T04:16:46.537Z,2.53
2023-02-03T04:17:20.189Z,5.97
2023-02-03T04:17:52.709Z,4.15
2023-02-03T04:18:24.889Z,6.00
2023-02-03T04:18:57.316Z,2.90
2023-02-03T04:19:29.279Z,2.78
2023-02-03T04:20:01.174Z,3.20
2023-02-03T04:20:33.757Z,2.67
2023-02-03T04:21:05.753Z,2.65
2023-02-03T04:21:37.616Z,3.85
2023-02-03T04:22:09.854Z,4.93
2023-02-03T04:22:41.974Z,3.12
2023-02-03T04:23:13.902Z,3.28
2023-02-03T04:23:45.836Z,5.10
2023-02-03T04:24:17.777Z,3.58
2023-02-03T04:24:49.644Z,4.75
2023-02-03T04:25:21.541Z,3.80
2023-02-03T04:25:53.417Z,2.80
2023-02-03T04:26:25.297Z,4.57
2023-02-03T04:26:57.165Z,2.55
2023-02-03T04:27:29.353Z,5.07
2023-02-03T04:28:01.739Z,7.55
2023-02-03T04:28:33.641Z,6.03
2023-02-03T04:29:05.697Z,6.35
2023-02-03T04:29:37.615Z,4.35
2023-02-03T04:30:11.057Z,5.18
2023-02-03T04:30:42.938Z,4.85
2023-02-03T04:31:14.948Z,5.85
2023-02-03T04:31:46.967Z,5.55
2023-02-03T04:32:19.897Z,6.60
2023-02-03T04:32:52.143Z,5.47
2023-02-03T04:33:24.000Z,4.70
2023-02-03T04:33:55.857Z,5.28
2023-02-03T04:34:27.746Z,4.55
2023-02-03T04:34:59.919Z,3.87
2023-02-03T04:35:31.803Z,3.50
2023-02-03T04:36:04.015Z,4.78
2023-02-03T04:36:35.907Z,3.80
2023-02-03T04:37:07.940Z,5.72
2023-02-03T04:37:40.029Z,3.12
2023-02-03T04:38:12.198Z,5.68
2023-02-03T04:38:44.041Z,5.97
2023-02-03T04:39:15.968Z,5.93
2023-02-03T04:39:47.858Z,3.53
2023-02-03T04:40:19.819Z,5.30
2023-02-03T04:40:51.722Z,3.85
2023-02-03T04:41:23.612Z,5.05
2023-02-03T04:41:55.552Z,2.85
2023-02-03T04:42:27.459Z,4.12
2023-02-03T04:42:59.352Z,3.53
2023-02-03T04:43:31.524Z,5.30
2023-02-03T04:44:03.404Z,4.85
2023-02-03T04:44:35.276Z,3.20
2023-02-03T04:45:09.279Z,3.05
2023-02-03T04:45:41.154Z,4.70
2023-02-03T04:46:13.283Z,5.03
2023-02-03T04:46:45.619Z,4.53
2023-02-03T04:47:18.345Z,5.30
2023-02-03T04:47:54.596Z,6.65
2023-02-03T04:48:27.329Z,6.80
2023-02-03T04:48:59.612Z,6.68
2023-02-03T04:49:31.510Z,7.43
2023-02-03T04:50:03.649Z,11.48
2023-02-03T04:50:35.537Z,8.38
2023-02-03T04:51:08.723Z,9.75
2023-02-03T04:51:40.673Z,10.68
2023-02-03T04:52:13.399Z,5.75
2023-02-03T04:52:45.221Z,5.12
2023-02-03T04:53:17.118Z,5.97
2023-02-03T04:53:49.177Z,3.33
2023-02-03T04:54:21.380Z,4.37
2023-02-03T04:54:53.272Z,4.60
2023-02-03T04:55:25.165Z,10.98
2023-02-03T04:55:57.138Z,5.90
2023-02-03T04:56:29.029Z,6.60
2023-02-03T04:57:01.327Z,3.97
2023-02-03T04:57:33.184Z,3.87
2023-02-03T04:58:05.100Z,3.08
2023-02-03T04:58:37.554Z,6.78
2023-02-03T04:59:09.567Z,7.07
2023-02-03T04:59:41.800Z,5.50
2023-02-03T05:00:14.537Z,5.00
2023-02-03T05:00:46.654Z,5.00
2023-02-03T05:01:18.942Z,4.97
2023-02-03T05:01:50.843Z,3.55
2023-02-03T05:02:22.735Z,7.55
2023-02-03T05:02:55.230Z,6.78
2023-02-03T05:03:27.118Z,3.53
2023-02-03T05:03:58.990Z,6.07
2023-02-03T05:04:31.705Z,6.00
2023-02-03T05:05:04.219Z,8.02
2023-02-03T05:05:36.104Z,4.22
2023-02-03T05:06:08.035Z,6.87
2023-02-03T05:06:40.013Z,4.47
2023-02-03T05:07:11.867Z,6.32
2023-02-03T05:07:43.748Z,6.12
2023-02-03T05:08:16.052Z,4.20
2023-02-03T05:08:47.915Z,4.50
2023-02-03T05:09:19.843Z,4.12
2023-02-03T05:09:51.751Z,6.40
2023-02-03T05:10:23.894Z,5.97
2023-02-03T05:10:55.743Z,5.68
2023-02-03T05:11:27.844Z,10.40
2023-02-03T05:11:59.712Z,15.00
2023-02-03T05:12:31.569Z,6.65
2023-02-03T05:13:03.737Z,8.60
2023-02-03T05:13:35.583Z,5.57
2023-02-03T05:14:07.617Z,7.95
2023-02-03T05:14:39.510Z,5.30
2023-02-03T05:15:11.392Z,11.15
2023-02-03T05:15:43.552Z,7.37
2023-02-03T05:16:15.612Z,7.93
2023-02-03T05:16:47.638Z,9.20
2023-02-03T05:17:19.570Z,4.20
2023-02-03T05:17:52.669Z,8.77
2023-02-03T05:18:25.378Z,6.05
2023-02-03T05:18:57.210Z,38.80
2023-02-03T05:19:29.143Z,38.33
2023-02-03T05:20:01.007Z,18.85
2023-02-03T05:20:32.877Z,10.90
2023-02-03T05:21:05.393Z,17.25
2023-02-03T05:21:37.917Z,13.68
2023-02-03T05:22:09.908Z,15.02
2023-02-03T05:22:41.768Z,22.73
2023-02-03T05:23:13.631Z,21.20
2023-02-03T05:23:45.520Z,20.92
2023-02-03T05:24:17.418Z,18.45
2023-02-03T05:24:49.266Z,16.62
2023-02-03T05:25:21.150Z,13.73
2023-02-03T05:25:53.045Z,13.27
2023-02-03T05:26:25.192Z,18.45
2023-02-03T05:26:57.076Z,17.02
2023-02-03T05:27:29.065Z,18.55
2023-02-03T05:28:01.032Z,14.25
2023-02-03T05:28:32.915Z,16.55
2023-02-03T05:29:04.829Z,20.20
2023-02-03T05:29:36.723Z,12.98
2023-02-03T05:30:10.235Z,11.75
2023-02-03T05:30:42.182Z,14.13
2023-02-03T05:31:14.163Z,13.52
2023-02-03T05:31:46.457Z,9.25
2023-02-03T05:32:18.467Z,14.63
2023-02-03T05:32:50.454Z,12.18
2023-02-03T05:33:22.314Z,12.35
2023-02-03T05:33:54.149Z,16.17
2023-02-03T05:34:26.089Z,14.43
2023-02-03T05:34:57.957Z,13.10
2023-02-03T05:35:29.814Z,14.65
2023-02-03T05:36:01.796Z,17.40
2023-02-03T05:36:33.709Z,56.05
2023-02-03T05:37:05.899Z,11.68
2023-02-03T05:37:37.803Z,21.10
2023-02-03T05:38:09.711Z,8.68
2023-02-03T05:38:42.567Z,12.60
2023-02-03T05:39:14.395Z,12.77
2023-02-03T05:39:46.238Z,13.85
2023-02-03T05:40:37.033Z,12.45
2023-02-03T05:41:30.700Z,9.52
2023-02-03T05:42:04.335Z,11.52
2023-02-03T05:42:36.507Z,9.82
2023-02-03T05:43:08.370Z,12.50
2023-02-03T05:43:40.263Z,11.60
2023-02-03T05:44:12.285Z,13.35
2023-02-03T05:44:44.322Z,10.43
2023-02-03T05:45:17.496Z,9.68
2023-02-03T05:45:49.422Z,9.98
2023-02-03T05:46:21.616Z,10.80
2023-02-03T05:46:55.115Z,10.70
2023-02-03T05:47:26.972Z,11.52
2023-02-03T05:47:59.142Z,9.90
2023-02-03T05:48:31.341Z,7.50
2023-02-03T05:49:03.250Z,8.18
2023-02-03T05:49:35.170Z,6.25
2023-02-03T05:50:07.172Z,6.00
2023-02-03T05:50:39.097Z,12.32
2023-02-03T05:51:12.014Z,9.13
2023-02-03T05:51:43.975Z,11.10
2023-02-03T05:52:15.811Z,9.95
2023-02-03T05:52:47.668Z,8.60
2023-02-03T05:53:19.804Z,8.32
2023-02-03T05:53:53.096Z,10.00
2023-02-03T05:54:25.022Z,13.48
2023-02-03T05:54:56.872Z,7.20
2023-02-03T05:55:29.508Z,9.85
2023-02-03T05:56:01.387Z,7.55
2023-02-03T05:56:33.299Z,13.90
2023-02-03T05:57:05.203Z,5.60
2023-02-03T05:57:37.067Z,10.20
2023-02-03T05:58:08.968Z,9.30
2023-02-03T05:58:41.115Z,8.13
2023-02-03T05:59:13.216Z,7.00
2023-02-03T05:59:45.064Z,7.15
2023-02-03T06:00:17.663Z,6.85
2023-02-03T06:00:50.410Z,7.32
2023-02-03T06:01:22.622Z,14.45
2023-02-03T06:01:54.479Z,6.82
2023-02-03T06:02:26.443Z,7.37
2023-02-03T06:03:02.274Z,7.82
2023-02-03T06:03:34.332Z,10.32
2023-02-03T06:04:07.015Z,7.37
2023-02-03T06:04:39.041Z,13.68
2023-02-03T06:05:10.949Z,8.05
2023-02-03T06:05:44.266Z,11.93
2023-02-03T06:06:17.548Z,13.62
2023-02-03T06:06:49.422Z,18.30
2023-02-03T06:07:21.359Z,11.73
2023-02-03T06:07:53.252Z,11.27
2023-02-03T06:08:28.637Z,11.57
2023-02-03T06:09:02.010Z,10.30
2023-02-03T06:09:33.895Z,16.35
2023-02-03T06:10:06.386Z,8.85
2023-02-03T06:10:38.270Z,6.45
2023-02-03T06:11:10.887Z,11.43
2023-02-03T06:11:43.200Z,12.75
2023-02-03T06:12:16.016Z,14.70
2023-02-03T06:12:48.300Z,6.37
2023-02-03T06:13:20.158Z,8.98
2023-02-03T06:13:52.493Z,7.53
2023-02-03T06:14:24.404Z,8.20
2023-02-03T06:14:56.376Z,18.15
2023-02-03T06:15:28.334Z,8.10
2023-02-03T06:16:00.268Z,7.72
2023-02-03T06:16:32.267Z,9.10
2023-02-03T06:17:04.501Z,8.82
2023-02-03T06:17:37.284Z,8.98
2023-02-03T06:18:09.409Z,6.75
2023-02-03T06:18:41.681Z,7.45
2023-02-03T06:19:15.250Z,11.32
2023-02-03T06:19:48.165Z,8.10
2023-02-03T06:20:20.791Z,10.27
2023-02-03T06:20:52.657Z,14.77
2023-02-03T06:21:24.491Z,13.80
2023-02-03T06:21:56.333Z,10.52
2023-02-03T06:22:28.542Z,11.68
2023-02-03T06:23:00.428Z,13.13
2023-02-03T06:23:32.283Z,17.10
2023-02-03T06:24:04.203Z,16.42
2023-02-03T06:24:36.254Z,18.90
2023-02-03T06:25:08.482Z,17.58
2023-02-03T06:25:40.368Z,18.80
2023-02-03T06:26:12.243Z,12.65
2023-02-03T06:26:44.120Z,18.10
2023-02-03T06:27:16.341Z,16.83
2023-02-03T06:27:48.680Z,15.18
2023-02-03T06:28:20.725Z,18.48
2023-02-03T06:28:52.755Z,19.02
2023-02-03T06:29:24.642Z,18.87
2023-02-03T06:29:56.557Z,18.85
2023-02-03T06:30:29.209Z,17.50
2023-02-03T06:31:01.411Z,17.02
2023-02-03T06:31:33.510Z,23.38
2023-02-03T06:32:05.730Z,23.60
2023-02-03T06:32:37.834Z,19.27
2023-02-03T06:33:10.047Z,17.90
2023-02-03T06:33:42.612Z,16.23
2023-02-03T06:34:14.478Z,14.50
2023-02-03T06:34:46.369Z,13.48
2023-02-03T06:35:18.665Z,19.25
2023-02-03T06:35:50.527Z,11.85
2023-02-03T06:36:22.543Z,13.98
2023-02-03T06:36:54.362Z,8.73
2023-02-03T06:37:26.252Z,6.47
2023-02-03T06:37:58.095Z,9.52
2023-02-03T06:38:30.316Z,7.55
2023-02-03T06:39:02.233Z,12.98
2023-02-03T06:39:34.122Z,20.77
2023-02-03T06:40:06.713Z,14.82
2023-02-03T06:40:38.677Z,14.57
2023-02-03T06:41:10.527Z,12.20
2023-02-03T06:41:42.455Z,19.85
2023-02-03T06:42:15.258Z,10.57
2023-02-03T06:42:48.415Z,17.40
2023-02-03T06:43:20.385Z,12.52
2023-02-03T06:43:52.560Z,5.93
2023-02-03T06:44:24.443Z,11.07
2023-02-03T06:44:56.369Z,11.48
2023-02-03T06:45:28.475Z,8.48
2023-02-03T06:46:00.379Z,10.05
2023-02-03T06:46:33.952Z,13.75
2023-02-03T06:47:06.161Z,10.93
2023-02-03T06:47:43.492Z,7.97
2023-02-03T06:48:15.551Z,9.95
2023-02-03T06:48:47.430Z,7.35
2023-02-03T06:49:19.710Z,9.10
2023-02-03T06:49:52.379Z,7.20
2023-02-03T06:50:25.020Z,16.42
2023-02-03T06:50:57.136Z,18.73
2023-02-03T06:51:28.998Z,19.40
2023-02-03T06:52:00.863Z,16.37
2023-02-03T06:52:32.777Z,10.70
2023-02-03T06:53:04.698Z,11.20
2023-02-03T06:53:36.621Z,13.00
2023-02-03T06:54:08.768Z,13.90
2023-02-03T06:54:41.354Z,9.00
2023-02-03T06:55:13.258Z,13.13
2023-02-03T06:55:45.212Z,21.95
2023-02-03T06:56:17.081Z,12.15
2023-02-03T06:56:48.970Z,14.38
2023-02-03T06:57:20.837Z,13.25
2023-02-03T06:57:52.739Z,11.68
2023-02-03T06:58:24.624Z,13.13
2023-02-03T06:58:57.864Z,11.30
2023-02-03T06:59:29.857Z,11.52
2023-02-03T07:00:02.429Z,17.37
2023-02-03T07:00:34.534Z,21.27
2023-02-03T07:01:06.424Z,23.38
2023-02-03T07:01:38.639Z,14.90
2023-02-03T07:02:12.057Z,12.65
2023-02-03T07:02:44.492Z,13.62
2023-02-03T07:03:16.421Z,13.57
2023-02-03T07:03:48.362Z,13.25
2023-02-03T07:04:20.239Z,19.35
2023-02-03T07:04:52.121Z,16.60
2023-02-03T07:05:25.251Z,17.77
2023-02-03T07:05:57.140Z,14.80
2023-02-03T07:06:30.985Z,23.45
2023-02-03T07:07:02.906Z,14.55
2023-02-03T07:07:36.252Z,16.58
2023-02-03T07:08:08.145Z,14.27
2023-02-03T07:08:40.073Z,17.58
2023-02-03T07:09:12.079Z,15.00
2023-02-03T07:09:43.982Z,13.20
2023-02-03T07:10:16.306Z,18.98
2023-02-03T07:10:53.470Z,15.68
2023-02-03T07:11:25.769Z,21.10
2023-02-03T07:11:58.164Z,21.42
2023-02-03T07:12:30.996Z,16.75
2023-02-03T07:13:06.729Z,18.75
2023-02-03T07:13:38.583Z,19.80
2023-02-03T07:14:10.430Z,18.20
2023-02-03T07:14:42.298Z,15.73
2023-02-03T07:15:14.240Z,18.17
2023-02-03T07:15:46.187Z,19.73
2023-02-03T07:16:18.805Z,17.75
2023-02-03T07:16:50.670Z,12.65
2023-02-03T07:17:22.661Z,17.35
2023-02-03T07:17:54.973Z,16.40
2023-02-03T07:19:18.960Z,9.73
2023-02-03T07:19:50.810Z,14.85
2023-02-03T07:20:24.560Z,13.50
2023-02-03T07:20:56.542Z,11.27
2023-02-03T07:21:28.764Z,13.88
2023-02-03T07:22:00.670Z,9.25
2023-02-03T07:22:32.535Z,9.88
2023-02-03T07:23:04.525Z,11.88
2023-02-03T07:23:36.482Z,14.90
2023-02-03T07:24:08.316Z,16.90
2023-02-03T07:24:40.169Z,10.40
2023-02-03T07:25:12.032Z,15.13
2023-02-03T07:25:43.843Z,9.02
2023-02-03T07:26:17.223Z,15.50
2023-02-03T07:26:49.402Z,13.52
2023-02-03T07:27:21.301Z,13.20
2023-02-03T07:27:53.860Z,10.25
2023-02-03T07:28:25.765Z,16.90
2023-02-03T07:29:00.050Z,9.82
2023-02-03T07:29:31.869Z,14.80
2023-02-03T07:30:04.708Z,16.15
2023-02-03T07:30:36.674Z,11.27
2023-02-03T07:31:10.421Z,14.77
2023-02-03T07:31:42.718Z,13.85
2023-02-03T07:32:15.078Z,12.35
2023-02-03T07:32:51.774Z,13.93
2023-02-03T07:33:23.891Z,12.52
2023-02-03T07:33:56.331Z,14.02
2023-02-03T07:34:28.613Z,17.23
2023-02-03T07:35:01.374Z,16.95
2023-02-03T07:35:33.365Z,16.58
2023-02-03T07:36:06.781Z,14.00
2023-02-03T07:36:38.877Z,12.90
2023-02-03T07:37:10.762Z,11.25